sensor_id;sensor_type;location;lat;lon;timestamp;temperature;humidity
31677;DHT22;18385;51.572;6.578;2023-04-15T00:00:49;11.30;47.90
31677;DHT22;18385;51.572;6.578;2023-04-15T00:03:16;11.20;48.00
31677;DHT22;18385;51.572;6.578;2023-04-15T00:05:43;11.20;48.10
31677;DHT22;18385;51.572;6.578;2023-04-15T00:08:09;11.20;48.20
31677;DHT22;18385;51.572;6.578;2023-04-15T00:10:34;11.20;48.30
31677;DHT22;18385;51.572;6.578;2023-04-15T00:13:00;11.20;48.30
31677;DHT22;18385;51.572;6.578;2023-04-15T00:15:27;11.10;48.40
31677;DHT22;18385;51.572;6.578;2023-04-15T00:17:52;11.10;48.50
31677;DHT22;18385;51.572;6.578;2023-04-15T00:20:18;11.00;48.50
31677;DHT22;18385;51.572;6.578;2023-04-15T00:22:44;11.00;48.60
31677;DHT22;18385;51.572;6.578;2023-04-15T00:25:11;11.00;48.80
31677;DHT22;18385;51.572;6.578;2023-04-15T00:27:37;10.90;48.80
31677;DHT22;18385;51.572;6.578;2023-04-15T00:30:03;10.90;48.90
31677;DHT22;18385;51.572;6.578;2023-04-15T00:32:29;10.80;49.00
31677;DHT22;18385;51.572;6.578;2023-04-15T00:34:55;10.80;49.20
31677;DHT22;18385;51.572;6.578;2023-04-15T00:37:22;10.80;49.20
31677;DHT22;18385;51.572;6.578;2023-04-15T00:39:48;10.70;49.30
31677;DHT22;18385;51.572;6.578;2023-04-15T00:42:14;10.70;49.30
31677;DHT22;18385;51.572;6.578;2023-04-15T00:44:39;10.70;49.50
31677;DHT22;18385;51.572;6.578;2023-04-15T00:47:05;10.60;49.40
31677;DHT22;18385;51.572;6.578;2023-04-15T00:49:31;10.60;49.60
31677;DHT22;18385;51.572;6.578;2023-04-15T00:51:57;10.50;49.60
31677;DHT22;18385;51.572;6.578;2023-04-15T00:54:23;10.50;49.70
31677;DHT22;18385;51.572;6.578;2023-04-15T00:56:48;10.40;49.80
31677;DHT22;18385;51.572;6.578;2023-04-15T00:59:14;10.40;50.00
31677;DHT22;18385;51.572;6.578;2023-04-15T01:01:42;10.40;50.00
31677;DHT22;18385;51.572;6.578;2023-04-15T01:04:09;10.30;50.10
31677;DHT22;18385;51.572;6.578;2023-04-15T01:06:35;10.30;50.20
31677;DHT22;18385;51.572;6.578;2023-04-15T01:09:01;10.30;50.30
31677;DHT22;18385;51.572;6.578;2023-04-15T01:11:28;10.30;50.30
31677;DHT22;18385;51.572;6.578;2023-04-15T01:13:55;10.30;50.50
31677;DHT22;18385;51.572;6.578;2023-04-15T01:16:23;10.20;50.50
31677;DHT22;18385;51.572;6.578;2023-04-15T01:18:49;10.20;50.50
31677;DHT22;18385;51.572;6.578;2023-04-15T01:21:15;10.20;50.60
31677;DHT22;18385;51.572;6.578;2023-04-15T01:23:42;10.20;50.70
31677;DHT22;18385;51.572;6.578;2023-04-15T01:26:08;10.20;50.70
31677;DHT22;18385;51.572;6.578;2023-04-15T01:28:35;10.20;50.70
31677;DHT22;18385;51.572;6.578;2023-04-15T01:31:11;10.20;50.90
31677;DHT22;18385;51.572;6.578;2023-04-15T01:33:39;10.20;51.10
31677;DHT22;18385;51.572;6.578;2023-04-15T01:36:06;10.20;51.00
31677;DHT22;18385;51.572;6.578;2023-04-15T01:38:33;10.10;51.00
31677;DHT22;18385;51.572;6.578;2023-04-15T01:40:58;10.10;51.00
31677;DHT22;18385;51.572;6.578;2023-04-15T01:43:25;10.10;51.20
31677;DHT22;18385;51.572;6.578;2023-04-15T01:45:51;10.10;51.20
31677;DHT22;18385;51.572;6.578;2023-04-15T01:48:16;10.10;51.20
31677;DHT22;18385;51.572;6.578;2023-04-15T01:50:43;10.00;51.30
31677;DHT22;18385;51.572;6.578;2023-04-15T01:53:09;10.00;51.30
31677;DHT22;18385;51.572;6.578;2023-04-15T01:55:35;9.90;51.40
31677;DHT22;18385;51.572;6.578;2023-04-15T01:58:02;9.90;51.50
31677;DHT22;18385;51.572;6.578;2023-04-15T02:00:28;9.80;51.60
31677;DHT22;18385;51.572;6.578;2023-04-15T02:02:54;9.80;51.70
31677;DHT22;18385;51.572;6.578;2023-04-15T02:05:20;9.80;51.80
31677;DHT22;18385;51.572;6.578;2023-04-15T02:07:47;9.70;51.80
31677;DHT22;18385;51.572;6.578;2023-04-15T02:10:12;9.70;51.90
31677;DHT22;18385;51.572;6.578;2023-04-15T02:12:38;9.70;52.00
31677;DHT22;18385;51.572;6.578;2023-04-15T02:15:06;9.70;52.10
31677;DHT22;18385;51.572;6.578;2023-04-15T02:17:35;9.60;52.10
31677;DHT22;18385;51.572;6.578;2023-04-15T02:20:02;9.60;52.30
31677;DHT22;18385;51.572;6.578;2023-04-15T02:22:30;9.50;52.20
31677;DHT22;18385;51.572;6.578;2023-04-15T02:24:56;9.50;52.30
31677;DHT22;18385;51.572;6.578;2023-04-15T02:27:22;9.40;52.40
31677;DHT22;18385;51.572;6.578;2023-04-15T02:29:49;9.40;52.50
31677;DHT22;18385;51.572;6.578;2023-04-15T02:32:17;9.30;52.60
31677;DHT22;18385;51.572;6.578;2023-04-15T02:34:45;9.40;52.70
31677;DHT22;18385;51.572;6.578;2023-04-15T02:37:12;9.40;52.80
31677;DHT22;18385;51.572;6.578;2023-04-15T02:39:38;9.40;52.80
31677;DHT22;18385;51.572;6.578;2023-04-15T02:42:04;9.30;52.80
31677;DHT22;18385;51.572;6.578;2023-04-15T02:44:31;9.30;52.90
31677;DHT22;18385;51.572;6.578;2023-04-15T02:47:00;9.30;52.90
31677;DHT22;18385;51.572;6.578;2023-04-15T02:49:26;9.40;53.10
31677;DHT22;18385;51.572;6.578;2023-04-15T02:51:54;9.40;53.20
31677;DHT22;18385;51.572;6.578;2023-04-15T02:54:21;9.40;53.20
31677;DHT22;18385;51.572;6.578;2023-04-15T02:56:50;9.40;53.20
31677;DHT22;18385;51.572;6.578;2023-04-15T02:59:19;9.40;53.20
31677;DHT22;18385;51.572;6.578;2023-04-15T03:01:45;9.40;53.30
31677;DHT22;18385;51.572;6.578;2023-04-15T03:04:11;9.40;53.40
31677;DHT22;18385;51.572;6.578;2023-04-15T03:06:37;9.40;53.40
31677;DHT22;18385;51.572;6.578;2023-04-15T03:09:03;9.40;53.70
31677;DHT22;18385;51.572;6.578;2023-04-15T03:11:32;9.40;53.50
31677;DHT22;18385;51.572;6.578;2023-04-15T03:13:58;9.40;53.50
31677;DHT22;18385;51.572;6.578;2023-04-15T03:16:29;9.40;53.60
31677;DHT22;18385;51.572;6.578;2023-04-15T03:18:56;9.40;53.70
31677;DHT22;18385;51.572;6.578;2023-04-15T03:21:23;9.40;53.70
31677;DHT22;18385;51.572;6.578;2023-04-15T03:23:49;9.40;53.80
31677;DHT22;18385;51.572;6.578;2023-04-15T03:26:28;9.40;53.80
31677;DHT22;18385;51.572;6.578;2023-04-15T03:28:57;9.40;54.00
31677;DHT22;18385;51.572;6.578;2023-04-15T03:31:23;9.30;53.90
31677;DHT22;18385;51.572;6.578;2023-04-15T03:33:49;9.30;54.00
31677;DHT22;18385;51.572;6.578;2023-04-15T03:36:15;9.30;54.00
31677;DHT22;18385;51.572;6.578;2023-04-15T03:38:41;9.20;54.00
31677;DHT22;18385;51.572;6.578;2023-04-15T03:41:07;9.20;54.10
31677;DHT22;18385;51.572;6.578;2023-04-15T03:43:33;9.20;54.20
31677;DHT22;18385;51.572;6.578;2023-04-15T03:46:00;9.10;54.20
31677;DHT22;18385;51.572;6.578;2023-04-15T03:48:26;9.10;54.30
31677;DHT22;18385;51.572;6.578;2023-04-15T03:50:51;9.10;54.40
31677;DHT22;18385;51.572;6.578;2023-04-15T03:53:17;9.00;54.40
31677;DHT22;18385;51.572;6.578;2023-04-15T03:55:42;9.00;54.50
31677;DHT22;18385;51.572;6.578;2023-04-15T03:58:09;9.00;54.50
31677;DHT22;18385;51.572;6.578;2023-04-15T04:00:38;9.00;54.50
31677;DHT22;18385;51.572;6.578;2023-04-15T04:03:03;8.90;54.70
31677;DHT22;18385;51.572;6.578;2023-04-15T04:05:29;8.90;54.90
31677;DHT22;18385;51.572;6.578;2023-04-15T04:07:55;8.90;54.80
31677;DHT22;18385;51.572;6.578;2023-04-15T04:10:21;8.90;54.90
31677;DHT22;18385;51.572;6.578;2023-04-15T04:12:48;8.80;54.90
31677;DHT22;18385;51.572;6.578;2023-04-15T04:15:14;8.80;55.00
31677;DHT22;18385;51.572;6.578;2023-04-15T04:17:40;8.80;55.10
31677;DHT22;18385;51.572;6.578;2023-04-15T04:20:06;8.80;55.20
31677;DHT22;18385;51.572;6.578;2023-04-15T04:22:40;8.80;55.30
31677;DHT22;18385;51.572;6.578;2023-04-15T04:25:06;8.80;55.40
31677;DHT22;18385;51.572;6.578;2023-04-15T04:27:33;8.80;55.40
31677;DHT22;18385;51.572;6.578;2023-04-15T04:29:59;8.80;55.40
31677;DHT22;18385;51.572;6.578;2023-04-15T04:32:25;8.80;55.40
31677;DHT22;18385;51.572;6.578;2023-04-15T04:34:50;8.80;55.50
31677;DHT22;18385;51.572;6.578;2023-04-15T04:37:16;8.80;55.60
31677;DHT22;18385;51.572;6.578;2023-04-15T04:39:42;8.80;55.60
31677;DHT22;18385;51.572;6.578;2023-04-15T04:42:07;8.80;55.70
31677;DHT22;18385;51.572;6.578;2023-04-15T04:44:33;8.70;55.70
31677;DHT22;18385;51.572;6.578;2023-04-15T04:46:59;8.70;55.80
31677;DHT22;18385;51.572;6.578;2023-04-15T04:49:24;8.70;55.80
31677;DHT22;18385;51.572;6.578;2023-04-15T04:51:50;8.70;55.90
31677;DHT22;18385;51.572;6.578;2023-04-15T04:54:16;8.80;55.90
31677;DHT22;18385;51.572;6.578;2023-04-15T04:56:42;8.80;56.00
31677;DHT22;18385;51.572;6.578;2023-04-15T04:59:07;8.90;56.10
31677;DHT22;18385;51.572;6.578;2023-04-15T05:01:33;8.90;56.10
31677;DHT22;18385;51.572;6.578;2023-04-15T05:03:59;8.90;56.10
31677;DHT22;18385;51.572;6.578;2023-04-15T05:06:25;9.00;56.10
31677;DHT22;18385;51.572;6.578;2023-04-15T05:08:52;9.10;56.10
31677;DHT22;18385;51.572;6.578;2023-04-15T05:11:17;9.10;56.10
31677;DHT22;18385;51.572;6.578;2023-04-15T05:13:43;9.10;56.00
31677;DHT22;18385;51.572;6.578;2023-04-15T05:16:09;9.10;56.00
31677;DHT22;18385;51.572;6.578;2023-04-15T05:18:34;9.10;56.10
31677;DHT22;18385;51.572;6.578;2023-04-15T05:21:01;9.20;56.10
31677;DHT22;18385;51.572;6.578;2023-04-15T05:23:27;9.20;56.20
31677;DHT22;18385;51.572;6.578;2023-04-15T05:25:52;9.20;56.20
31677;DHT22;18385;51.572;6.578;2023-04-15T05:28:18;9.20;56.20
31677;DHT22;18385;51.572;6.578;2023-04-15T05:30:44;9.20;56.30
31677;DHT22;18385;51.572;6.578;2023-04-15T05:33:10;9.20;56.30
31677;DHT22;18385;51.572;6.578;2023-04-15T05:35:35;9.20;56.40
31677;DHT22;18385;51.572;6.578;2023-04-15T05:38:01;9.30;56.40
31677;DHT22;18385;51.572;6.578;2023-04-15T05:40:27;9.30;56.40
31677;DHT22;18385;51.572;6.578;2023-04-15T05:42:52;9.30;56.40
31677;DHT22;18385;51.572;6.578;2023-04-15T05:45:18;9.30;56.40
31677;DHT22;18385;51.572;6.578;2023-04-15T05:47:43;9.40;56.60
31677;DHT22;18385;51.572;6.578;2023-04-15T05:50:09;9.40;56.60
31677;DHT22;18385;51.572;6.578;2023-04-15T05:52:35;9.40;56.70
31677;DHT22;18385;51.572;6.578;2023-04-15T05:55:01;9.50;56.70
31677;DHT22;18385;51.572;6.578;2023-04-15T05:57:27;9.50;56.70
31677;DHT22;18385;51.572;6.578;2023-04-15T05:59:52;9.60;56.80
31677;DHT22;18385;51.572;6.578;2023-04-15T06:02:18;9.60;56.70
31677;DHT22;18385;51.572;6.578;2023-04-15T06:04:44;9.70;56.80
31677;DHT22;18385;51.572;6.578;2023-04-15T06:07:09;9.80;56.90
31677;DHT22;18385;51.572;6.578;2023-04-15T06:09:35;9.90;56.90
31677;DHT22;18385;51.572;6.578;2023-04-15T06:12:01;9.90;56.70
31677;DHT22;18385;51.572;6.578;2023-04-15T06:14:27;10.00;56.80
31677;DHT22;18385;51.572;6.578;2023-04-15T06:16:53;10.10;57.40
31677;DHT22;18385;51.572;6.578;2023-04-15T06:19:19;10.20;56.80
31677;DHT22;18385;51.572;6.578;2023-04-15T06:21:45;10.30;56.80
31677;DHT22;18385;51.572;6.578;2023-04-15T06:24:11;10.40;56.80
31677;DHT22;18385;51.572;6.578;2023-04-15T06:26:37;10.50;56.80
31677;DHT22;18385;51.572;6.578;2023-04-15T06:29:02;10.60;56.80
31677;DHT22;18385;51.572;6.578;2023-04-15T06:31:28;10.70;56.70
31677;DHT22;18385;51.572;6.578;2023-04-15T06:33:54;10.90;56.70
31677;DHT22;18385;51.572;6.578;2023-04-15T06:36:20;10.80;56.60
31677;DHT22;18385;51.572;6.578;2023-04-15T06:38:46;10.90;56.60
31677;DHT22;18385;51.572;6.578;2023-04-15T06:41:12;10.90;56.80
31677;DHT22;18385;51.572;6.578;2023-04-15T06:43:38;11.10;56.90
31677;DHT22;18385;51.572;6.578;2023-04-15T06:46:04;11.20;56.80
31677;DHT22;18385;51.572;6.578;2023-04-15T06:48:30;11.30;56.80
31677;DHT22;18385;51.572;6.578;2023-04-15T06:50:55;11.40;56.70
31677;DHT22;18385;51.572;6.578;2023-04-15T06:53:26;11.60;56.70
31677;DHT22;18385;51.572;6.578;2023-04-15T06:55:52;11.70;56.70
31677;DHT22;18385;51.572;6.578;2023-04-15T06:58:18;11.80;56.70
31677;DHT22;18385;51.572;6.578;2023-04-15T07:00:43;12.00;56.70
31677;DHT22;18385;51.572;6.578;2023-04-15T07:03:10;12.10;56.50
31677;DHT22;18385;51.572;6.578;2023-04-15T07:05:37;12.30;56.50
31677;DHT22;18385;51.572;6.578;2023-04-15T07:08:03;12.50;56.30
31677;DHT22;18385;51.572;6.578;2023-04-15T07:10:29;12.60;56.30
31677;DHT22;18385;51.572;6.578;2023-04-15T07:12:55;12.80;56.30
31677;DHT22;18385;51.572;6.578;2023-04-15T07:15:21;12.90;56.20
31677;DHT22;18385;51.572;6.578;2023-04-15T07:17:48;13.00;56.00
31677;DHT22;18385;51.572;6.578;2023-04-15T07:20:13;13.10;56.00
31677;DHT22;18385;51.572;6.578;2023-04-15T07:22:39;13.20;55.90
31677;DHT22;18385;51.572;6.578;2023-04-15T07:25:05;13.30;55.80
31677;DHT22;18385;51.572;6.578;2023-04-15T07:27:32;13.40;55.80
31677;DHT22;18385;51.572;6.578;2023-04-15T07:29:58;13.50;55.90
31677;DHT22;18385;51.572;6.578;2023-04-15T07:32:23;13.70;55.90
31677;DHT22;18385;51.572;6.578;2023-04-15T07:34:49;13.90;55.70
31677;DHT22;18385;51.572;6.578;2023-04-15T07:37:15;14.00;55.60
31677;DHT22;18385;51.572;6.578;2023-04-15T07:39:40;14.00;55.40
31677;DHT22;18385;51.572;6.578;2023-04-15T07:42:07;14.10;55.20
31677;DHT22;18385;51.572;6.578;2023-04-15T07:44:33;14.10;55.10
31677;DHT22;18385;51.572;6.578;2023-04-15T07:46:58;14.20;55.10
31677;DHT22;18385;51.572;6.578;2023-04-15T07:49:24;14.30;55.10
31677;DHT22;18385;51.572;6.578;2023-04-15T07:51:50;14.40;55.10
31677;DHT22;18385;51.572;6.578;2023-04-15T07:54:16;14.60;55.10
31677;DHT22;18385;51.572;6.578;2023-04-15T07:56:41;14.80;55.00
31677;DHT22;18385;51.572;6.578;2023-04-15T07:59:07;14.80;54.60
31677;DHT22;18385;51.572;6.578;2023-04-15T08:01:34;14.80;54.40
31677;DHT22;18385;51.572;6.578;2023-04-15T08:04:00;14.70;54.40
31677;DHT22;18385;51.572;6.578;2023-04-15T08:06:25;14.70;54.50
31677;DHT22;18385;51.572;6.578;2023-04-15T08:08:52;14.70;54.70
31677;DHT22;18385;51.572;6.578;2023-04-15T08:11:19;14.80;54.60
31677;DHT22;18385;51.572;6.578;2023-04-15T08:13:46;14.70;54.40
31677;DHT22;18385;51.572;6.578;2023-04-15T08:16:22;14.80;54.40
31677;DHT22;18385;51.572;6.578;2023-04-15T08:18:50;14.80;54.40
31677;DHT22;18385;51.572;6.578;2023-04-15T08:21:17;14.80;54.50
31677;DHT22;18385;51.572;6.578;2023-04-15T08:23:47;14.90;54.30
31677;DHT22;18385;51.572;6.578;2023-04-15T08:26:15;14.90;54.40
31677;DHT22;18385;51.572;6.578;2023-04-15T08:28:41;15.10;54.30
31677;DHT22;18385;51.572;6.578;2023-04-15T08:31:07;15.10;54.10
31677;DHT22;18385;51.572;6.578;2023-04-15T08:33:34;15.20;54.00
31677;DHT22;18385;51.572;6.578;2023-04-15T08:35:59;15.30;53.90
31677;DHT22;18385;51.572;6.578;2023-04-15T08:38:25;15.40;53.90
31677;DHT22;18385;51.572;6.578;2023-04-15T08:40:51;15.60;54.00
31677;DHT22;18385;51.572;6.578;2023-04-15T08:43:26;15.70;53.50
31677;DHT22;18385;51.572;6.578;2023-04-15T08:45:53;15.80;53.30
31677;DHT22;18385;51.572;6.578;2023-04-15T08:48:20;15.80;53.00
31677;DHT22;18385;51.572;6.578;2023-04-15T08:50:46;15.70;53.00
31677;DHT22;18385;51.572;6.578;2023-04-15T08:53:13;15.80;53.20
31677;DHT22;18385;51.572;6.578;2023-04-15T08:55:42;15.90;53.10
31677;DHT22;18385;51.572;6.578;2023-04-15T08:58:13;15.80;53.00
31677;DHT22;18385;51.572;6.578;2023-04-15T09:00:41;15.80;53.00
31677;DHT22;18385;51.572;6.578;2023-04-15T09:03:08;15.80;52.90
31677;DHT22;18385;51.572;6.578;2023-04-15T09:05:35;15.80;52.80
31677;DHT22;18385;51.572;6.578;2023-04-15T09:08:01;15.60;52.70
31677;DHT22;18385;51.572;6.578;2023-04-15T09:10:28;15.50;52.70
31677;DHT22;18385;51.572;6.578;2023-04-15T09:12:55;15.60;53.10
31677;DHT22;18385;51.572;6.578;2023-04-15T09:15:20;15.70;52.80
31677;DHT22;18385;51.572;6.578;2023-04-15T09:17:49;15.70;53.00
31677;DHT22;18385;51.572;6.578;2023-04-15T09:20:16;15.80;52.80
31677;DHT22;18385;51.572;6.578;2023-04-15T09:22:44;15.80;52.80
31677;DHT22;18385;51.572;6.578;2023-04-15T09:27:59;16.00;52.60
31677;DHT22;18385;51.572;6.578;2023-04-15T09:30:27;16.00;52.60
31677;DHT22;18385;51.572;6.578;2023-04-15T09:33:00;16.20;52.80
31677;DHT22;18385;51.572;6.578;2023-04-15T09:35:35;16.30;52.40
31677;DHT22;18385;51.572;6.578;2023-04-15T09:38:06;16.30;52.20
31677;DHT22;18385;51.572;6.578;2023-04-15T09:40:36;16.30;52.10
31677;DHT22;18385;51.572;6.578;2023-04-15T09:43:03;16.30;52.10
31677;DHT22;18385;51.572;6.578;2023-04-15T09:45:30;16.20;52.00
31677;DHT22;18385;51.572;6.578;2023-04-15T09:48:15;16.20;52.10
31677;DHT22;18385;51.572;6.578;2023-04-15T09:50:42;16.30;52.10
31677;DHT22;18385;51.572;6.578;2023-04-15T09:53:15;16.20;52.00
31677;DHT22;18385;51.572;6.578;2023-04-15T10:00:47;16.40;52.20
31677;DHT22;18385;51.572;6.578;2023-04-15T10:03:21;16.50;51.90
31677;DHT22;18385;51.572;6.578;2023-04-15T10:05:49;16.60;52.00
31677;DHT22;18385;51.572;6.578;2023-04-15T10:08:20;16.60;51.60
31677;DHT22;18385;51.572;6.578;2023-04-15T10:10:47;16.60;51.60
31677;DHT22;18385;51.572;6.578;2023-04-15T10:13:18;16.70;51.70
31677;DHT22;18385;51.572;6.578;2023-04-15T10:15:49;16.80;51.60
31677;DHT22;18385;51.572;6.578;2023-04-15T10:18:16;16.90;51.30
31677;DHT22;18385;51.572;6.578;2023-04-15T10:20:43;17.00;51.30
31677;DHT22;18385;51.572;6.578;2023-04-15T10:23:11;17.10;51.00
31677;DHT22;18385;51.572;6.578;2023-04-15T10:25:37;17.20;51.00
31677;DHT22;18385;51.572;6.578;2023-04-15T10:28:05;17.20;50.90
31677;DHT22;18385;51.572;6.578;2023-04-15T10:30:32;17.30;50.70
31677;DHT22;18385;51.572;6.578;2023-04-15T10:33:02;17.30;50.50
31677;DHT22;18385;51.572;6.578;2023-04-15T10:35:29;17.20;50.50
31677;DHT22;18385;51.572;6.578;2023-04-15T10:37:56;17.40;50.80
31677;DHT22;18385;51.572;6.578;2023-04-15T10:40:26;17.60;50.60
31677;DHT22;18385;51.572;6.578;2023-04-15T10:42:56;17.80;50.10
31677;DHT22;18385;51.572;6.578;2023-04-15T10:45:30;17.90;49.80
31677;DHT22;18385;51.572;6.578;2023-04-15T10:47:57;17.80;50.00
31677;DHT22;18385;51.572;6.578;2023-04-15T10:50:26;18.00;50.20
31677;DHT22;18385;51.572;6.578;2023-04-15T10:52:55;18.20;49.70
31677;DHT22;18385;51.572;6.578;2023-04-15T10:55:29;18.00;49.40
31677;DHT22;18385;51.572;6.578;2023-04-15T10:58:00;17.90;49.40
31677;DHT22;18385;51.572;6.578;2023-04-15T11:00:28;17.80;49.60
31677;DHT22;18385;51.572;6.578;2023-04-15T11:02:55;17.80;49.70
31677;DHT22;18385;51.572;6.578;2023-04-15T11:08:07;18.10;49.70
31677;DHT22;18385;51.572;6.578;2023-04-15T11:12:59;17.80;49.10
31677;DHT22;18385;51.572;6.578;2023-04-15T11:15:37;17.60;49.10
31677;DHT22;18385;51.572;6.578;2023-04-15T11:20:42;17.30;49.40
31677;DHT22;18385;51.572;6.578;2023-04-15T11:23:13;17.10;49.40
31677;DHT22;18385;51.572;6.578;2023-04-15T11:25:39;17.00;49.60
31677;DHT22;18385;51.572;6.578;2023-04-15T11:28:05;17.00;49.70
31677;DHT22;18385;51.572;6.578;2023-04-15T11:30:35;17.10;49.90
31677;DHT22;18385;51.572;6.578;2023-04-15T11:33:09;17.10;49.60
31677;DHT22;18385;51.572;6.578;2023-04-15T11:35:37;17.10;49.50
31677;DHT22;18385;51.572;6.578;2023-04-15T11:38:04;17.00;50.20
31677;DHT22;18385;51.572;6.578;2023-04-15T11:40:31;17.10;49.80
31677;DHT22;18385;51.572;6.578;2023-04-15T11:43:13;17.20;49.90
31677;DHT22;18385;51.572;6.578;2023-04-15T11:45:53;17.20;49.50
31677;DHT22;18385;51.572;6.578;2023-04-15T11:48:25;17.20;49.50
31677;DHT22;18385;51.572;6.578;2023-04-15T11:51:05;17.40;49.80
31677;DHT22;18385;51.572;6.578;2023-04-15T11:56:17;18.10;48.90
31677;DHT22;18385;51.572;6.578;2023-04-15T11:58:43;18.10;48.50
31677;DHT22;18385;51.572;6.578;2023-04-15T12:01:10;18.10;48.60
31677;DHT22;18385;51.572;6.578;2023-04-15T12:03:44;17.90;48.20
31677;DHT22;18385;51.572;6.578;2023-04-15T12:09:15;17.80;48.90
31677;DHT22;18385;51.572;6.578;2023-04-15T12:11:48;17.90;48.70
31677;DHT22;18385;51.572;6.578;2023-04-15T12:14:28;17.70;48.50
31677;DHT22;18385;51.572;6.578;2023-04-15T12:17:00;17.50;48.50
31677;DHT22;18385;51.572;6.578;2023-04-15T12:19:28;17.30;48.80
31677;DHT22;18385;51.572;6.578;2023-04-15T12:22:00;17.10;49.00
31677;DHT22;18385;51.572;6.578;2023-04-15T12:24:26;16.90;49.80
31677;DHT22;18385;51.572;6.578;2023-04-15T12:26:53;16.90;49.40
31677;DHT22;18385;51.572;6.578;2023-04-15T12:29:23;17.10;49.90
31677;DHT22;18385;51.572;6.578;2023-04-15T12:31:50;17.30;49.60
31677;DHT22;18385;51.572;6.578;2023-04-15T12:34:17;17.50;49.20
31677;DHT22;18385;51.572;6.578;2023-04-15T12:36:44;17.70;49.00
31677;DHT22;18385;51.572;6.578;2023-04-15T12:39:10;17.60;48.50
31677;DHT22;18385;51.572;6.578;2023-04-15T12:41:35;17.30;48.60
31677;DHT22;18385;51.572;6.578;2023-04-15T12:44:01;17.20;49.10
31677;DHT22;18385;51.572;6.578;2023-04-15T12:46:26;17.20;49.30
31677;DHT22;18385;51.572;6.578;2023-04-15T12:48:53;17.40;49.30
31677;DHT22;18385;51.572;6.578;2023-04-15T12:51:19;17.70;49.30
31677;DHT22;18385;51.572;6.578;2023-04-15T12:53:47;17.90;49.10
31677;DHT22;18385;51.572;6.578;2023-04-15T12:56:14;17.90;48.50
31677;DHT22;18385;51.572;6.578;2023-04-15T12:58:41;17.80;48.50
31677;DHT22;18385;51.572;6.578;2023-04-15T13:01:07;17.80;48.40
31677;DHT22;18385;51.572;6.578;2023-04-15T13:03:33;17.60;48.40
31677;DHT22;18385;51.572;6.578;2023-04-15T13:05:58;17.60;48.60
31677;DHT22;18385;51.572;6.578;2023-04-15T13:08:26;17.50;48.50
31677;DHT22;18385;51.572;6.578;2023-04-15T13:10:52;17.60;48.70
31677;DHT22;18385;51.572;6.578;2023-04-15T13:13:18;17.60;48.30
31677;DHT22;18385;51.572;6.578;2023-04-15T13:15:43;17.70;48.80
31677;DHT22;18385;51.572;6.578;2023-04-15T13:18:10;17.90;48.50
31677;DHT22;18385;51.572;6.578;2023-04-15T13:20:36;17.60;48.00
31677;DHT22;18385;51.572;6.578;2023-04-15T13:23:01;17.40;48.30
31677;DHT22;18385;51.572;6.578;2023-04-15T13:25:27;17.10;48.50
31677;DHT22;18385;51.572;6.578;2023-04-15T13:27:53;17.00;48.80
31677;DHT22;18385;51.572;6.578;2023-04-15T13:30:19;16.80;49.00
31677;DHT22;18385;51.572;6.578;2023-04-15T13:32:44;16.60;49.00
31677;DHT22;18385;51.572;6.578;2023-04-15T13:35:10;16.40;49.30
31677;DHT22;18385;51.572;6.578;2023-04-15T13:37:36;16.30;49.60
31677;DHT22;18385;51.572;6.578;2023-04-15T13:40:02;16.10;49.80
31677;DHT22;18385;51.572;6.578;2023-04-15T13:42:28;16.10;50.00
31677;DHT22;18385;51.572;6.578;2023-04-15T13:44:53;16.00;49.90
31677;DHT22;18385;51.572;6.578;2023-04-15T13:47:19;15.90;50.10
31677;DHT22;18385;51.572;6.578;2023-04-15T13:49:45;15.80;50.20
31677;DHT22;18385;51.572;6.578;2023-04-15T13:52:11;15.90;50.30
31677;DHT22;18385;51.572;6.578;2023-04-15T13:54:37;15.90;50.30
31677;DHT22;18385;51.572;6.578;2023-04-15T13:57:04;15.80;50.20
31677;DHT22;18385;51.572;6.578;2023-04-15T13:59:30;15.80;50.30
31677;DHT22;18385;51.572;6.578;2023-04-15T14:01:55;15.80;50.40
31677;DHT22;18385;51.572;6.578;2023-04-15T14:04:21;15.70;50.40
31677;DHT22;18385;51.572;6.578;2023-04-15T14:06:46;15.60;50.50
31677;DHT22;18385;51.572;6.578;2023-04-15T14:09:13;15.60;50.70
31677;DHT22;18385;51.572;6.578;2023-04-15T14:11:39;15.60;50.80
31677;DHT22;18385;51.572;6.578;2023-04-15T14:14:04;15.50;50.70
31677;DHT22;18385;51.572;6.578;2023-04-15T14:16:33;15.40;50.90
31677;DHT22;18385;51.572;6.578;2023-04-15T14:19:00;15.40;51.00
31677;DHT22;18385;51.572;6.578;2023-04-15T14:21:26;15.40;51.80
31677;DHT22;18385;51.572;6.578;2023-04-15T14:23:57;15.40;51.30
31677;DHT22;18385;51.572;6.578;2023-04-15T14:26:23;15.60;51.50
31677;DHT22;18385;51.572;6.578;2023-04-15T14:28:49;15.70;51.20
31677;DHT22;18385;51.572;6.578;2023-04-15T14:31:15;15.70;51.00
31677;DHT22;18385;51.572;6.578;2023-04-15T14:33:40;15.70;51.00
31677;DHT22;18385;51.572;6.578;2023-04-15T14:36:07;15.70;51.00
31677;DHT22;18385;51.572;6.578;2023-04-15T14:38:34;15.70;51.10
31677;DHT22;18385;51.572;6.578;2023-04-15T14:41:07;15.70;51.10
31677;DHT22;18385;51.572;6.578;2023-04-15T14:43:34;15.70;51.10
31677;DHT22;18385;51.572;6.578;2023-04-15T14:46:00;15.60;51.20
31677;DHT22;18385;51.572;6.578;2023-04-15T14:48:27;15.60;51.20
31677;DHT22;18385;51.572;6.578;2023-04-15T14:50:52;15.50;51.30
31677;DHT22;18385;51.572;6.578;2023-04-15T14:53:18;15.50;51.40
31677;DHT22;18385;51.572;6.578;2023-04-15T14:55:44;15.50;51.40
31677;DHT22;18385;51.572;6.578;2023-04-15T14:58:10;15.40;51.30
31677;DHT22;18385;51.572;6.578;2023-04-15T15:00:37;15.40;51.50
31677;DHT22;18385;51.572;6.578;2023-04-15T15:03:09;15.50;51.70
31677;DHT22;18385;51.572;6.578;2023-04-15T15:05:40;15.50;51.50
31677;DHT22;18385;51.572;6.578;2023-04-15T15:08:07;15.40;52.20
31677;DHT22;18385;51.572;6.578;2023-04-15T15:10:34;15.40;51.60
31677;DHT22;18385;51.572;6.578;2023-04-15T15:13:04;15.40;51.60
31677;DHT22;18385;51.572;6.578;2023-04-15T15:15:30;15.30;51.60
31677;DHT22;18385;51.572;6.578;2023-04-15T15:17:56;15.30;51.80
31677;DHT22;18385;51.572;6.578;2023-04-15T15:20:22;15.20;51.80
31677;DHT22;18385;51.572;6.578;2023-04-15T15:22:48;15.20;51.80
31677;DHT22;18385;51.572;6.578;2023-04-15T15:25:14;15.10;51.90
31677;DHT22;18385;51.572;6.578;2023-04-15T15:27:39;15.10;52.00
31677;DHT22;18385;51.572;6.578;2023-04-15T15:30:06;15.10;52.20
31677;DHT22;18385;51.572;6.578;2023-04-15T15:32:31;15.20;52.20
31677;DHT22;18385;51.572;6.578;2023-04-15T15:34:57;15.20;52.10
31677;DHT22;18385;51.572;6.578;2023-04-15T15:37:23;15.20;52.10
31677;DHT22;18385;51.572;6.578;2023-04-15T15:39:48;15.20;52.10
31677;DHT22;18385;51.572;6.578;2023-04-15T15:42:17;15.20;52.10
31677;DHT22;18385;51.572;6.578;2023-04-15T15:44:43;15.20;52.10
31677;DHT22;18385;51.572;6.578;2023-04-15T15:47:09;15.20;52.20
31677;DHT22;18385;51.572;6.578;2023-04-15T15:49:34;15.20;52.20
31677;DHT22;18385;51.572;6.578;2023-04-15T15:52:00;15.10;52.20
31677;DHT22;18385;51.572;6.578;2023-04-15T15:54:26;15.00;52.40